createdAt,value
2023-05-21T00:00:27.472Z,15.02
2023-05-21T00:02:53.965Z,15.03
2023-05-21T00:05:21.432Z,15.04
2023-05-21T00:07:47.921Z,15.06
2023-05-21T00:10:14.419Z,15.07
2023-05-21T00:12:41.927Z,15.05
2023-05-21T00:15:09.321Z,15.04
2023-05-21T00:17:36.903Z,15.07
2023-05-21T00:20:08.753Z,15.08
2023-05-21T00:22:36.790Z,15.09
2023-05-21T00:25:04.208Z,15.10
2023-05-21T00:27:30.753Z,15.09
2023-05-21T00:29:57.581Z,15.07
2023-05-21T00:32:24.066Z,15.05
2023-05-21T00:34:50.796Z,15.05
2023-05-21T00:37:17.257Z,15.07
2023-05-21T00:39:43.680Z,15.05
2023-05-21T00:42:10.403Z,15.04
2023-05-21T00:44:36.844Z,15.01
2023-05-21T00:47:03.660Z,14.99
2023-05-21T00:49:31.489Z,14.96
2023-05-21T00:52:01.381Z,14.95
2023-05-21T00:54:28.159Z,14.98
2023-05-21T00:56:55.028Z,14.97
2023-05-21T00:59:21.619Z,14.95
2023-05-21T01:01:53.978Z,14.94
2023-05-21T01:04:20.606Z,14.94
2023-05-21T01:06:47.030Z,14.96
2023-05-21T01:09:13.559Z,14.95
2023-05-21T01:11:43.370Z,14.93
2023-05-21T01:14:12.653Z,14.93
2023-05-21T01:16:42.161Z,14.94
2023-05-21T01:19:14.064Z,14.93
2023-05-21T01:21:44.793Z,14.94
2023-05-21T01:24:11.233Z,14.94
2023-05-21T01:26:38.816Z,14.95
2023-05-21T01:29:06.576Z,14.95
2023-05-21T01:31:53.211Z,14.96
2023-05-21T01:34:23.987Z,14.88
2023-05-21T01:36:59.432Z,14.83
2023-05-21T01:39:37.103Z,14.86
2023-05-21T01:42:05.921Z,14.93
2023-05-21T01:44:33.938Z,14.93
2023-05-21T01:47:00.663Z,14.91
2023-05-21T01:49:27.262Z,14.90
2023-05-21T01:51:53.999Z,14.90
2023-05-21T01:54:21.980Z,14.89
2023-05-21T01:56:49.717Z,14.89
2023-05-21T01:59:17.269Z,14.88
2023-05-21T02:01:43.869Z,14.89
2023-05-21T02:04:10.422Z,14.85
2023-05-21T02:06:39.395Z,14.84
2023-05-21T02:09:05.946Z,14.82
2023-05-21T02:11:32.409Z,14.77
2023-05-21T02:13:58.839Z,14.78
2023-05-21T02:16:25.639Z,14.78
2023-05-21T02:18:52.254Z,14.80
2023-05-21T02:21:20.606Z,14.82
2023-05-21T02:23:47.062Z,14.82
2023-05-21T02:26:13.503Z,14.82
2023-05-21T02:28:40.531Z,14.84
2023-05-21T02:31:07.015Z,14.76
2023-05-21T02:33:33.508Z,14.72
2023-05-21T02:36:00.053Z,14.76
2023-05-21T02:38:26.613Z,14.76
2023-05-21T02:40:53.197Z,14.79
2023-05-21T02:43:19.790Z,14.80
2023-05-21T02:45:46.508Z,14.76
2023-05-21T02:48:12.990Z,14.77
2023-05-21T02:50:39.548Z,14.79
2023-05-21T02:53:06.326Z,14.77
2023-05-21T02:55:32.792Z,14.77
2023-05-21T02:57:59.304Z,14.77
2023-05-21T03:00:26.117Z,14.76
2023-05-21T03:02:52.733Z,14.75
2023-05-21T03:05:19.395Z,14.74
2023-05-21T03:07:45.858Z,14.71
2023-05-21T03:10:12.308Z,14.72
2023-05-21T03:12:39.272Z,14.70
2023-05-21T03:15:06.174Z,14.72
2023-05-21T03:17:32.702Z,14.72
2023-05-21T03:19:59.171Z,14.68
2023-05-21T03:22:25.682Z,14.64
2023-05-21T03:24:53.330Z,14.60
2023-05-21T03:27:19.837Z,14.61
2023-05-21T03:29:46.313Z,14.60
2023-05-21T03:32:13.498Z,14.58
2023-05-21T03:34:40.077Z,14.53
2023-05-21T03:37:06.559Z,14.53
2023-05-21T03:39:33.032Z,14.57
2023-05-21T03:41:59.507Z,14.61
2023-05-21T03:44:26.076Z,14.64
2023-05-21T03:46:52.510Z,14.68
2023-05-21T03:49:20.523Z,14.67
2023-05-21T03:51:46.970Z,14.65
2023-05-21T03:54:13.513Z,14.64
2023-05-21T03:56:40.032Z,14.64
2023-05-21T03:59:06.489Z,14.64
2023-05-21T04:01:33.314Z,14.65
2023-05-21T04:03:59.971Z,14.64
2023-05-21T04:06:26.549Z,14.62
2023-05-21T04:08:53.044Z,14.63
2023-05-21T04:11:19.579Z,14.65
2023-05-21T04:13:46.206Z,14.63
2023-05-21T04:16:14.763Z,14.60
2023-05-21T04:18:43.558Z,14.59
2023-05-21T04:21:12.151Z,14.58
2023-05-21T04:23:38.631Z,14.54
2023-05-21T04:26:05.128Z,14.55
2023-05-21T04:28:31.649Z,14.58
2023-05-21T04:30:58.656Z,14.61
2023-05-21T04:33:25.641Z,14.61
2023-05-21T04:35:52.302Z,14.64
2023-05-21T04:38:19.885Z,14.64
2023-05-21T04:40:52.254Z,14.68
2023-05-21T04:43:25.662Z,14.66
2023-05-21T04:45:55.354Z,14.64
2023-05-21T04:48:24.626Z,14.66
2023-05-21T04:50:52.011Z,14.64
2023-05-21T04:53:18.541Z,14.64
2023-05-21T04:55:45.077Z,14.65
2023-05-21T04:58:11.591Z,14.67
2023-05-21T05:00:39.257Z,14.68
2023-05-21T05:03:06.204Z,14.71
2023-05-21T05:05:32.695Z,14.69
2023-05-21T05:07:59.220Z,14.66
2023-05-21T05:10:25.693Z,14.68
2023-05-21T05:12:52.097Z,14.68
2023-05-21T05:15:18.678Z,14.73
2023-05-21T05:17:45.238Z,14.76
2023-05-21T05:20:11.846Z,14.78
2023-05-21T05:22:38.344Z,14.78
2023-05-21T05:25:06.302Z,14.81
2023-05-21T05:27:32.743Z,14.81
2023-05-21T05:29:59.219Z,14.81
2023-05-21T05:32:25.742Z,14.85
2023-05-21T05:34:52.226Z,14.89
2023-05-21T05:37:18.705Z,14.89
2023-05-21T05:39:45.163Z,14.89
2023-05-21T05:42:11.678Z,14.92
2023-05-21T05:44:38.205Z,14.95
2023-05-21T05:47:09.112Z,14.96
2023-05-21T05:49:36.321Z,14.99
2023-05-21T05:52:03.090Z,14.97
2023-05-21T05:54:29.611Z,14.99
2023-05-21T05:56:56.026Z,14.97
2023-05-21T05:59:22.504Z,14.98
2023-05-21T06:01:48.943Z,15.01
2023-05-21T06:04:15.502Z,15.01
2023-05-21T06:06:42.069Z,15.06
2023-05-21T06:09:08.534Z,15.08
2023-05-21T06:11:35.134Z,15.05
2023-05-21T06:14:01.945Z,15.09
2023-05-21T06:16:31.521Z,15.06
2023-05-21T06:18:58.259Z,15.05
2023-05-21T06:21:24.812Z,15.11
2023-05-21T06:23:51.444Z,15.16
2023-05-21T06:26:19.430Z,15.19
2023-05-21T06:28:45.929Z,15.24
2023-05-21T06:31:12.391Z,15.27
2023-05-21T06:33:39.067Z,15.31
2023-05-21T06:36:05.975Z,15.34
2023-05-21T06:38:32.396Z,15.36
2023-05-21T06:40:58.836Z,15.39
2023-05-21T06:43:25.379Z,15.45
2023-05-21T06:45:51.935Z,15.48
2023-05-21T06:48:18.479Z,15.50
2023-05-21T06:50:44.929Z,15.48
2023-05-21T06:53:11.401Z,15.50
2023-05-21T06:55:38.032Z,15.56
2023-05-21T06:58:04.636Z,15.54
2023-05-21T07:00:31.325Z,15.54
2023-05-21T07:02:57.897Z,15.60
2023-05-21T07:05:24.414Z,15.59
2023-05-21T07:07:51.005Z,15.59
2023-05-21T07:10:17.671Z,15.59
2023-05-21T07:12:44.145Z,15.58
2023-05-21T07:15:11.118Z,15.59
2023-05-21T07:17:37.962Z,15.60
2023-05-21T07:20:09.616Z,15.60
2023-05-21T07:22:38.560Z,15.61
2023-05-21T07:25:06.191Z,15.55
2023-05-21T07:27:32.672Z,15.53
2023-05-21T07:29:59.131Z,15.51
2023-05-21T07:32:26.844Z,15.51
2023-05-21T07:34:54.426Z,15.54
2023-05-21T07:37:21.443Z,15.54
2023-05-21T07:39:47.941Z,15.53
2023-05-21T07:42:14.390Z,15.54
2023-05-21T07:44:40.870Z,15.54
2023-05-21T07:47:07.421Z,15.57
2023-05-21T07:49:33.936Z,15.59
2023-05-21T07:52:00.603Z,15.63
2023-05-21T07:54:27.068Z,15.63
2023-05-21T07:56:53.546Z,15.59
2023-05-21T07:59:19.996Z,15.61
2023-05-21T08:01:46.447Z,15.62
2023-05-21T08:04:13.073Z,15.64
2023-05-21T08:06:39.620Z,15.66
2023-05-21T08:09:06.818Z,15.67
2023-05-21T08:11:33.313Z,15.66
2023-05-21T08:13:59.970Z,15.69
2023-05-21T08:16:26.892Z,15.73
2023-05-21T08:18:53.636Z,15.76
2023-05-21T08:21:20.190Z,15.78
2023-05-21T08:23:46.654Z,15.82
2023-05-21T08:26:13.222Z,15.91
2023-05-21T08:28:39.778Z,15.97
2023-05-21T08:31:06.401Z,16.00
2023-05-21T08:33:37.092Z,16.06
2023-05-21T08:36:07.398Z,16.16
2023-05-21T08:38:37.062Z,16.20
2023-05-21T08:41:06.916Z,16.27
2023-05-21T08:43:34.405Z,16.40
2023-05-21T08:46:04.044Z,16.51
2023-05-21T08:48:31.438Z,16.57
2023-05-21T08:51:00.415Z,16.60
2023-05-21T08:53:30.066Z,16.66
2023-05-21T08:55:57.496Z,16.77
2023-05-21T08:58:27.661Z,16.87
2023-05-21T09:00:56.049Z,16.98
2023-05-21T09:03:24.530Z,17.04
2023-05-21T09:05:51.954Z,17.16
2023-05-21T09:08:21.776Z,17.31
2023-05-21T09:10:50.571Z,17.53
2023-05-21T09:13:18.792Z,17.62
2023-05-21T09:15:51.457Z,17.73
2023-05-21T09:18:17.985Z,17.86
2023-05-21T09:20:45.326Z,17.97
2023-05-21T09:23:16.491Z,18.06
2023-05-21T09:25:47.493Z,18.13
2023-05-21T09:28:15.794Z,18.22
2023-05-21T09:30:49.598Z,18.28
2023-05-21T09:33:26.704Z,18.44
2023-05-21T09:35:53.327Z,18.60
2023-05-21T09:38:22.463Z,18.75
2023-05-21T09:40:48.934Z,18.86
2023-05-21T09:43:16.336Z,19.08
2023-05-21T09:46:09.835Z,19.25
2023-05-21T09:48:37.083Z,19.41
2023-05-21T09:51:16.608Z,19.62
2023-05-21T09:53:59.894Z,19.63
2023-05-21T09:56:35.793Z,19.68
2023-05-21T09:59:04.444Z,19.68
2023-05-21T10:01:34.059Z,19.84
2023-05-21T10:04:07.893Z,19.92
2023-05-21T10:06:38.276Z,19.93
2023-05-21T10:09:09.963Z,20.10
2023-05-21T10:11:37.331Z,20.09
2023-05-21T10:14:07.652Z,20.09
2023-05-21T10:16:36.251Z,20.12
2023-05-21T10:19:04.825Z,20.11
2023-05-21T10:21:33.360Z,20.11
2023-05-21T10:24:02.183Z,20.14
2023-05-21T10:26:30.010Z,20.26
2023-05-21T10:29:00.122Z,20.48
2023-05-21T10:31:27.784Z,20.50
2023-05-21T10:33:57.471Z,20.62
2023-05-21T10:36:25.563Z,20.77
2023-05-21T10:38:52.106Z,20.81
2023-05-21T10:41:21.839Z,20.79
2023-05-21T10:44:02.553Z,20.84
2023-05-21T10:46:51.039Z,20.84
2023-05-21T10:49:34.022Z,20.92
2023-05-21T10:52:40.367Z,20.97
2023-05-21T10:55:26.368Z,21.13
2023-05-21T10:58:16.885Z,21.38
2023-05-21T11:00:44.058Z,21.56
2023-05-21T11:03:14.030Z,21.67
2023-05-21T11:05:55.418Z,21.73
2023-05-21T11:08:26.901Z,21.93
2023-05-21T11:11:01.656Z,21.97
2023-05-21T11:13:32.583Z,21.92
2023-05-21T11:15:59.248Z,21.93
2023-05-21T11:18:38.373Z,22.15
2023-05-21T11:21:06.572Z,22.19
2023-05-21T11:23:56.660Z,22.11
2023-05-21T11:26:29.323Z,21.82
2023-05-21T11:29:04.989Z,22.00
2023-05-21T11:31:41.055Z,22.16
2023-05-21T11:34:14.476Z,22.31
2023-05-21T11:36:43.800Z,22.28
2023-05-21T11:39:28.206Z,22.32
2023-05-21T11:42:04.354Z,22.34
2023-05-21T11:44:44.935Z,22.41
2023-05-21T11:47:15.038Z,22.58
2023-05-21T11:49:42.447Z,22.69
2023-05-21T11:52:17.289Z,22.81
2023-05-21T11:54:50.493Z,22.47
2023-05-21T11:57:19.277Z,22.53
2023-05-21T11:59:46.887Z,22.57
2023-05-21T12:02:20.800Z,22.65
2023-05-21T12:04:48.891Z,22.72
2023-05-21T12:07:19.107Z,22.82
2023-05-21T12:09:50.439Z,22.91
2023-05-21T12:12:19.182Z,22.89
2023-05-21T12:14:47.802Z,22.93
2023-05-21T12:17:19.293Z,22.89
2023-05-21T12:19:47.102Z,22.94
2023-05-21T12:22:16.468Z,22.74
2023-05-21T12:24:44.108Z,22.47
2023-05-21T12:27:13.278Z,22.40
2023-05-21T12:29:42.423Z,22.28
2023-05-21T12:32:13.767Z,22.39
2023-05-21T12:34:54.926Z,22.62
2023-05-21T12:37:24.119Z,22.58
2023-05-21T12:39:52.375Z,22.73
2023-05-21T12:42:30.652Z,22.79
2023-05-21T12:44:58.232Z,23.00
2023-05-21T12:47:26.953Z,23.10
2023-05-21T12:49:57.829Z,22.89
2023-05-21T12:52:25.413Z,22.87
2023-05-21T12:54:54.671Z,22.87
2023-05-21T12:57:23.928Z,23.03
2023-05-21T12:59:51.708Z,23.03
2023-05-21T13:02:22.738Z,23.08
2023-05-21T13:04:54.805Z,22.79
2023-05-21T13:07:21.395Z,22.72
2023-05-21T13:09:48.997Z,22.76
2023-05-21T13:12:15.650Z,22.79
2023-05-21T13:14:42.190Z,22.73
2023-05-21T13:17:08.768Z,22.83
2023-05-21T13:19:36.518Z,23.03
2023-05-21T13:22:03.629Z,23.17
2023-05-21T13:24:30.101Z,23.24
2023-05-21T13:26:56.843Z,23.16
2023-05-21T13:29:23.563Z,22.97
2023-05-21T13:31:50.093Z,22.91
2023-05-21T13:34:16.739Z,23.17
2023-05-21T13:36:43.300Z,23.36
2023-05-21T13:39:09.780Z,23.13
2023-05-21T13:41:36.420Z,22.95
2023-05-21T13:44:02.955Z,23.25
2023-05-21T13:46:29.781Z,23.30
2023-05-21T13:48:56.505Z,23.24
2023-05-21T13:51:37.365Z,23.20
2023-05-21T13:54:04.955Z,23.07
2023-05-21T13:56:33.340Z,23.02
2023-05-21T13:59:00.157Z,22.97
2023-05-21T14:01:26.969Z,22.94
2023-05-21T14:03:53.467Z,23.00
2023-05-21T14:06:20.085Z,23.09
2023-05-21T14:08:46.667Z,23.38
2023-05-21T14:11:13.124Z,23.49
2023-05-21T14:13:39.686Z,23.57
2023-05-21T14:16:06.848Z,23.52
2023-05-21T14:18:33.549Z,23.36
2023-05-21T14:21:00.083Z,23.21
2023-05-21T14:23:26.592Z,23.29
2023-05-21T14:25:53.124Z,23.29
2023-05-21T14:28:19.647Z,23.10
2023-05-21T14:30:46.176Z,23.03
2023-05-21T14:33:13.359Z,23.23
2023-05-21T14:35:41.424Z,23.28
2023-05-21T14:38:07.925Z,23.24
2023-05-21T14:40:34.423Z,23.40
2023-05-21T14:43:01.028Z,23.48
2023-05-21T14:45:27.541Z,23.54
2023-05-21T14:47:54.072Z,23.49
2023-05-21T14:50:20.550Z,23.57
2023-05-21T14:52:47.166Z,23.29
2023-05-21T14:55:16.366Z,23.30
2023-05-21T14:57:42.825Z,23.23
2023-05-21T15:00:11.535Z,23.32
2023-05-21T15:02:38.306Z,23.34
2023-05-21T15:05:05.247Z,23.44
2023-05-21T15:07:31.793Z,23.47
2023-05-21T15:09:58.263Z,23.44
2023-05-21T15:12:24.855Z,23.43
2023-05-21T15:14:51.484Z,23.39
2023-05-21T15:17:17.973Z,23.48
2023-05-21T15:19:44.859Z,23.36
2023-05-21T15:22:11.303Z,23.38
2023-05-21T15:24:37.848Z,23.42
2023-05-21T15:27:04.714Z,23.36
2023-05-21T15:29:31.783Z,23.37
2023-05-21T15:31:58.528Z,23.49
2023-05-21T15:34:25.225Z,23.53
2023-05-21T15:36:51.843Z,23.47
2023-05-21T15:39:18.358Z,23.42
2023-05-21T15:41:44.813Z,23.33
2023-05-21T15:44:11.459Z,23.23
2023-05-21T15:46:37.912Z,23.27
2023-05-21T15:49:04.475Z,23.23
2023-05-21T15:51:31.216Z,23.18
2023-05-21T15:53:57.799Z,23.13
2023-05-21T15:56:24.485Z,23.09
2023-05-21T15:58:51.104Z,23.01
2023-05-21T16:01:18.327Z,22.90
2023-05-21T16:03:44.872Z,22.88
2023-05-21T16:06:21.031Z,23.07
2023-05-21T16:08:48.355Z,23.13
2023-05-21T16:11:15.494Z,23.11
2023-05-21T16:13:42.038Z,23.07
2023-05-21T16:16:08.686Z,23.01
2023-05-21T16:18:35.212Z,23.16
2023-05-21T16:21:01.764Z,23.12
2023-05-21T16:23:28.875Z,23.19
2023-05-21T16:25:55.488Z,23.21
2023-05-21T16:28:34.037Z,23.25
2023-05-21T16:31:02.583Z,23.26
2023-05-21T16:33:29.349Z,23.18
2023-05-21T16:35:55.937Z,23.16
2023-05-21T16:38:22.781Z,23.19
2023-05-21T16:40:49.451Z,23.20
2023-05-21T16:43:16.474Z,23.25
2023-05-21T16:45:46.807Z,23.30
2023-05-21T16:48:13.501Z,23.34
2023-05-21T16:50:40.751Z,23.30
2023-05-21T16:53:08.597Z,22.97
2023-05-21T16:55:36.940Z,22.65
2023-05-21T16:58:05.678Z,22.39
2023-05-21T17:00:32.862Z,22.27
2023-05-21T17:02:59.562Z,22.15
2023-05-21T17:05:26.462Z,22.07
2023-05-21T17:07:53.168Z,22.02
2023-05-21T17:10:19.707Z,21.97
2023-05-21T17:12:46.286Z,21.90
2023-05-21T17:15:13.276Z,21.84
2023-05-21T17:17:41.625Z,21.78
2023-05-21T17:20:09.119Z,21.71
2023-05-21T17:22:35.708Z,21.63
2023-05-21T17:25:02.632Z,21.55
2023-05-21T17:27:29.272Z,21.47
2023-05-21T17:29:56.069Z,21.41
2023-05-21T17:32:23.333Z,21.41
2023-05-21T17:34:49.862Z,21.42
2023-05-21T17:37:16.601Z,21.42
2023-05-21T17:39:46.150Z,21.44
2023-05-21T17:42:12.650Z,21.45
2023-05-21T17:44:39.300Z,21.46
2023-05-21T17:47:06.910Z,21.47
2023-05-21T17:49:33.559Z,21.49
2023-05-21T17:52:03.849Z,21.46
2023-05-21T17:54:31.404Z,21.42
2023-05-21T17:56:57.965Z,21.39
2023-05-21T17:59:29.409Z,21.36
2023-05-21T18:02:02.768Z,21.35
2023-05-21T18:04:34.325Z,21.32
2023-05-21T18:07:02.479Z,21.28
2023-05-21T18:09:30.854Z,21.25
2023-05-21T18:11:59.821Z,21.23
2023-05-21T18:14:34.157Z,21.22
2023-05-21T18:17:02.426Z,21.18
2023-05-21T18:19:32.030Z,21.16
2023-05-21T18:21:58.698Z,21.14
2023-05-21T18:24:30.016Z,21.13
2023-05-21T18:26:56.793Z,21.09
2023-05-21T18:29:23.294Z,21.02
2023-05-21T18:31:53.634Z,20.96
2023-05-21T18:34:33.060Z,20.91
2023-05-21T18:37:01.644Z,20.86
2023-05-21T18:39:31.914Z,20.83
2023-05-21T18:42:12.058Z,20.79
2023-05-21T18:44:42.177Z,20.75
2023-05-21T18:47:08.761Z,20.75
2023-05-21T18:49:38.934Z,20.73
2023-05-21T18:52:07.226Z,20.68
2023-05-21T18:54:33.915Z,20.64
2023-05-21T18:57:00.964Z,20.60
2023-05-21T18:59:29.196Z,20.56
2023-05-21T19:01:55.965Z,20.50
2023-05-21T19:04:22.534Z,20.45
2023-05-21T19:06:54.511Z,20.41
2023-05-21T19:09:34.488Z,20.38
2023-05-21T19:12:04.765Z,20.34
2023-05-21T19:14:31.499Z,20.28
2023-05-21T19:16:58.041Z,20.22
2023-05-21T19:19:24.536Z,20.20
2023-05-21T19:21:52.793Z,20.17
2023-05-21T19:24:19.292Z,20.14
2023-05-21T19:26:45.731Z,20.12
2023-05-21T19:29:12.274Z,20.11
2023-05-21T19:31:39.219Z,20.08
2023-05-21T19:34:10.444Z,20.04
2023-05-21T19:36:51.450Z,20.02
2023-05-21T19:39:19.789Z,19.99
2023-05-21T19:41:46.319Z,19.96
2023-05-21T19:44:12.782Z,19.95
2023-05-21T19:46:39.294Z,19.94
2023-05-21T19:49:05.835Z,19.92
2023-05-21T19:51:32.338Z,19.87
2023-05-21T19:53:58.754Z,19.84
2023-05-21T19:56:25.601Z,19.80
2023-05-21T19:58:52.059Z,19.77
2023-05-21T20:01:18.694Z,19.72
2023-05-21T20:03:45.517Z,19.67
2023-05-21T20:06:12.280Z,19.61
2023-05-21T20:08:38.988Z,19.52
2023-05-21T20:11:05.526Z,19.55
2023-05-21T20:13:32.055Z,19.54
2023-05-21T20:15:58.598Z,19.52
2023-05-21T20:18:25.070Z,19.51
2023-05-21T20:20:51.601Z,19.51
2023-05-21T20:23:18.021Z,19.43
2023-05-21T20:25:44.459Z,19.39
2023-05-21T20:28:11.025Z,19.37
2023-05-21T20:30:53.510Z,19.40
2023-05-21T20:33:20.518Z,19.44
2023-05-21T20:35:47.045Z,19.46
2023-05-21T20:38:15.941Z,19.41
2023-05-21T20:40:44.149Z,19.35
2023-05-21T20:43:18.540Z,19.27
2023-05-21T20:45:49.842Z,19.21
2023-05-21T20:48:16.666Z,19.17
2023-05-21T20:50:44.249Z,19.10
2023-05-21T20:53:12.048Z,19.04
2023-05-21T20:55:38.594Z,18.97
2023-05-21T20:58:05.645Z,18.97
2023-05-21T21:00:33.392Z,18.97
2023-05-21T21:03:01.239Z,18.93
2023-05-21T21:05:28.294Z,18.94
2023-05-21T21:07:55.958Z,18.94
2023-05-21T21:10:22.764Z,18.91
2023-05-21T21:12:49.225Z,18.85
2023-05-21T21:15:15.818Z,18.84
2023-05-21T21:17:42.279Z,18.87
2023-05-21T21:20:10.614Z,18.87
2023-05-21T21:22:37.166Z,18.84
2023-05-21T21:25:04.012Z,18.82
2023-05-21T21:27:30.468Z,18.83
2023-05-21T21:29:56.998Z,18.87
2023-05-21T21:32:23.621Z,18.85
2023-05-21T21:34:50.045Z,18.78
2023-05-21T21:37:16.846Z,18.75
2023-05-21T21:39:43.297Z,18.70
2023-05-21T21:42:09.888Z,18.66
2023-05-21T21:44:36.375Z,18.64
2023-05-21T21:47:02.809Z,18.63
2023-05-21T21:49:29.338Z,18.58
2023-05-21T21:51:57.817Z,18.53
2023-05-21T21:54:24.645Z,18.44
2023-05-21T21:56:51.768Z,18.37
2023-05-21T21:59:18.803Z,18.25
2023-05-21T22:01:45.386Z,18.23
2023-05-21T22:04:11.928Z,18.23
2023-05-21T22:06:39.116Z,18.23
2023-05-21T22:09:06.608Z,18.22
2023-05-21T22:11:33.105Z,18.14
2023-05-21T22:14:00.372Z,18.13
2023-05-21T22:16:28.188Z,18.15
2023-05-21T22:18:54.751Z,18.18
2023-05-21T22:21:21.540Z,18.16
2023-05-21T22:23:48.015Z,18.07
2023-05-21T22:26:14.449Z,18.07
2023-05-21T22:28:40.956Z,18.00
2023-05-21T22:31:07.901Z,17.92
2023-05-21T22:33:34.481Z,17.88
2023-05-21T22:36:00.985Z,17.89
2023-05-21T22:38:27.662Z,17.92
2023-05-21T22:40:54.496Z,17.93
2023-05-21T22:43:21.000Z,17.88
2023-05-21T22:45:47.450Z,17.83
2023-05-21T22:48:14.341Z,17.81
2023-05-21T22:50:41.016Z,17.75
2023-05-21T22:53:07.685Z,17.67
2023-05-21T22:55:34.108Z,17.65
2023-05-21T22:58:00.572Z,17.62
2023-05-21T23:00:27.562Z,17.67
2023-05-21T23:02:54.802Z,17.67
2023-05-21T23:05:21.602Z,17.65
2023-05-21T23:07:48.065Z,17.64
2023-05-21T23:10:14.566Z,17.65
2023-05-21T23:12:41.297Z,17.55
2023-05-21T23:15:09.762Z,17.50
2023-05-21T23:17:37.207Z,17.50
2023-05-21T23:20:04.044Z,17.56
2023-05-21T23:22:30.599Z,17.49
2023-05-21T23:24:57.202Z,17.45
2023-05-21T23:27:23.969Z,17.51
2023-05-21T23:29:50.438Z,17.50
2023-05-21T23:32:17.153Z,17.43
2023-05-21T23:34:43.654Z,17.39
2023-05-21T23:37:10.160Z,17.38
2023-05-21T23:39:36.734Z,17.35
2023-05-21T23:42:03.509Z,17.39
2023-05-21T23:44:29.979Z,17.40
2023-05-21T23:46:56.432Z,17.48
2023-05-21T23:49:22.851Z,17.43
2023-05-21T23:51:52.274Z,17.30
2023-05-21T23:54:18.778Z,17.22
2023-05-21T23:56:45.720Z,17.25
2023-05-21T23:59:12.157Z,17.24
